sensor_id;sensor_type;location;lat;lon;timestamp;temperature;humidity
15003;DHT22;7597;53.590;10.020;2023-03-01T00:01:01;-0.70;1.00
15003;DHT22;7597;53.590;10.020;2023-03-01T00:03:27;-0.60;1.00
15003;DHT22;7597;53.590;10.020;2023-03-01T00:05:53;-0.60;1.00
15003;DHT22;7597;53.590;10.020;2023-03-01T00:08:20;-0.60;1.00
15003;DHT22;7597;53.590;10.020;2023-03-01T00:10:46;-0.60;1.00
15003;DHT22;7597;53.590;10.020;2023-03-01T00:13:14;-0.60;1.00
15003;DHT22;7597;53.590;10.020;2023-03-01T00:15:41;-0.60;1.00
15003;DHT22;7597;53.590;10.020;2023-03-01T00:18:07;-0.60;1.00
15003;DHT22;7597;53.590;10.020;2023-03-01T00:20:34;-0.70;1.00
15003;DHT22;7597;53.590;10.020;2023-03-01T00:23:01;-0.70;1.00
15003;DHT22;7597;53.590;10.020;2023-03-01T00:25:27;-0.80;1.00
15003;DHT22;7597;53.590;10.020;2023-03-01T00:27:54;-0.80;1.00
15003;DHT22;7597;53.590;10.020;2023-03-01T00:30:21;-0.80;1.00
15003;DHT22;7597;53.590;10.020;2023-03-01T00:32:48;-0.80;1.00
15003;DHT22;7597;53.590;10.020;2023-03-01T00:35:15;-0.80;1.00
15003;DHT22;7597;53.590;10.020;2023-03-01T00:37:42;-0.80;1.00
15003;DHT22;7597;53.590;10.020;2023-03-01T00:40:09;-0.80;1.00
15003;DHT22;7597;53.590;10.020;2023-03-01T00:42:36;-0.90;1.00
15003;DHT22;7597;53.590;10.020;2023-03-01T00:45:03;-0.90;1.00
15003;DHT22;7597;53.590;10.020;2023-03-01T00:47:30;-0.90;1.00
15003;DHT22;7597;53.590;10.020;2023-03-01T00:49:56;-0.90;1.00
15003;DHT22;7597;53.590;10.020;2023-03-01T00:52:23;-0.90;1.00
15003;DHT22;7597;53.590;10.020;2023-03-01T00:54:51;-0.90;1.00
15003;DHT22;7597;53.590;10.020;2023-03-01T00:57:16;-0.90;1.00
15003;DHT22;7597;53.590;10.020;2023-03-01T00:59:43;-0.90;1.00
15003;DHT22;7597;53.590;10.020;2023-03-01T01:02:09;-0.80;1.00
15003;DHT22;7597;53.590;10.020;2023-03-01T01:04:36;-0.80;1.00
15003;DHT22;7597;53.590;10.020;2023-03-01T01:07:03;-0.70;1.00
15003;DHT22;7597;53.590;10.020;2023-03-01T01:09:29;-0.70;1.00
15003;DHT22;7597;53.590;10.020;2023-03-01T01:11:56;-0.70;1.00
15003;DHT22;7597;53.590;10.020;2023-03-01T01:14:23;-0.30;1.00
15003;DHT22;7597;53.590;10.020;2023-03-01T01:16:49;-0.70;1.00
15003;DHT22;7597;53.590;10.020;2023-03-01T01:19:16;-0.70;1.00
15003;DHT22;7597;53.590;10.020;2023-03-01T01:21:43;-0.60;1.00
15003;DHT22;7597;53.590;10.020;2023-03-01T01:24:09;-0.60;1.00
15003;DHT22;7597;53.590;10.020;2023-03-01T01:26:36;-0.70;1.00
15003;DHT22;7597;53.590;10.020;2023-03-01T01:29:03;-0.60;1.00
15003;DHT22;7597;53.590;10.020;2023-03-01T01:31:29;-0.70;1.00
15003;DHT22;7597;53.590;10.020;2023-03-01T01:33:56;-0.70;1.00
15003;DHT22;7597;53.590;10.020;2023-03-01T01:36:22;-0.70;1.00
15003;DHT22;7597;53.590;10.020;2023-03-01T01:38:50;-0.80;1.00
15003;DHT22;7597;53.590;10.020;2023-03-01T01:41:15;-0.90;1.00
15003;DHT22;7597;53.590;10.020;2023-03-01T01:43:45;-0.90;1.00
15003;DHT22;7597;53.590;10.020;2023-03-01T01:48:46;-0.90;1.00
15003;DHT22;7597;53.590;10.020;2023-03-01T01:51:14;-0.90;1.00
15003;DHT22;7597;53.590;10.020;2023-03-01T01:53:39;-0.80;1.00
15003;DHT22;7597;53.590;10.020;2023-03-01T01:56:07;-0.70;1.00
15003;DHT22;7597;53.590;10.020;2023-03-01T01:58:33;-0.60;1.00
15003;DHT22;7597;53.590;10.020;2023-03-01T02:00:59;-0.50;1.00
15003;DHT22;7597;53.590;10.020;2023-03-01T02:03:29;-0.20;1.00
15003;DHT22;7597;53.590;10.020;2023-03-01T02:06:18;-0.40;1.00
15003;DHT22;7597;53.590;10.020;2023-03-01T02:08:45;-0.30;1.00
15003;DHT22;7597;53.590;10.020;2023-03-01T02:11:12;-0.30;1.00
15003;DHT22;7597;53.590;10.020;2023-03-01T02:13:39;-0.20;1.00
15003;DHT22;7597;53.590;10.020;2023-03-01T02:16:08;-0.10;1.00
15003;DHT22;7597;53.590;10.020;2023-03-01T02:18:32;0.00;1.00
15003;DHT22;7597;53.590;10.020;2023-03-01T02:23:41;0.10;1.00
15003;DHT22;7597;53.590;10.020;2023-03-01T02:26:10;0.10;1.00
15003;DHT22;7597;53.590;10.020;2023-03-01T02:28:36;0.60;1.00
15003;DHT22;7597;53.590;10.020;2023-03-01T02:31:04;-0.10;1.00
15003;DHT22;7597;53.590;10.020;2023-03-01T02:33:36;-0.20;1.00
15003;DHT22;7597;53.590;10.020;2023-03-01T02:36:06;-0.20;1.00
15003;DHT22;7597;53.590;10.020;2023-03-01T02:38:31;-0.20;1.00
15003;DHT22;7597;53.590;10.020;2023-03-01T02:40:58;-0.20;1.00
15003;DHT22;7597;53.590;10.020;2023-03-01T02:43:25;-0.20;1.00
15003;DHT22;7597;53.590;10.020;2023-03-01T02:45:51;-0.10;1.00
15003;DHT22;7597;53.590;10.020;2023-03-01T02:48:18;-0.10;1.00
15003;DHT22;7597;53.590;10.020;2023-03-01T02:53:32;-0.10;1.00
15003;DHT22;7597;53.590;10.020;2023-03-01T02:55:54;-0.10;1.00
15003;DHT22;7597;53.590;10.020;2023-03-01T02:58:21;-0.10;1.00
15003;DHT22;7597;53.590;10.020;2023-03-01T03:00:48;-0.10;1.00
15003;DHT22;7597;53.590;10.020;2023-03-01T03:03:16;-0.20;1.00
15003;DHT22;7597;53.590;10.020;2023-03-01T03:05:42;0.10;1.00
15003;DHT22;7597;53.590;10.020;2023-03-01T03:08:08;-0.30;1.00
15003;DHT22;7597;53.590;10.020;2023-03-01T03:10:36;0.00;1.00
15003;DHT22;7597;53.590;10.020;2023-03-01T03:13:05;-0.30;1.00
15003;DHT22;7597;53.590;10.020;2023-03-01T03:15:30;-0.40;1.00
15003;DHT22;7597;53.590;10.020;2023-03-01T03:17:57;-0.50;1.00
15003;DHT22;7597;53.590;10.020;2023-03-01T03:20:24;0.00;1.00
15003;DHT22;7597;53.590;10.020;2023-03-01T03:22:51;-0.50;1.00
15003;DHT22;7597;53.590;10.020;2023-03-01T03:25:17;-0.50;1.00
15003;DHT22;7597;53.590;10.020;2023-03-01T03:27:44;-0.50;1.00
15003;DHT22;7597;53.590;10.020;2023-03-01T03:30:12;-0.40;1.00
15003;DHT22;7597;53.590;10.020;2023-03-01T03:32:37;-0.30;1.00
15003;DHT22;7597;53.590;10.020;2023-03-01T03:35:04;-0.30;1.00
15003;DHT22;7597;53.590;10.020;2023-03-01T03:37:32;-0.20;1.00
15003;DHT22;7597;53.590;10.020;2023-03-01T03:40:04;-0.10;1.00
15003;DHT22;7597;53.590;10.020;2023-03-01T03:42:31;0.00;1.00
15003;DHT22;7597;53.590;10.020;2023-03-01T03:44:58;0.10;1.00
15003;DHT22;7597;53.590;10.020;2023-03-01T03:47:24;0.20;1.00
15003;DHT22;7597;53.590;10.020;2023-03-01T03:49:51;0.30;1.00
15003;DHT22;7597;53.590;10.020;2023-03-01T03:52:18;0.40;1.00
15003;DHT22;7597;53.590;10.020;2023-03-01T03:54:44;0.50;1.00
15003;DHT22;7597;53.590;10.020;2023-03-01T03:57:14;0.60;1.00
15003;DHT22;7597;53.590;10.020;2023-03-01T03:59:40;0.70;1.00
15003;DHT22;7597;53.590;10.020;2023-03-01T04:02:07;0.80;1.00
15003;DHT22;7597;53.590;10.020;2023-03-01T04:04:34;0.80;1.00
15003;DHT22;7597;53.590;10.020;2023-03-01T04:07:00;0.90;1.00
15003;DHT22;7597;53.590;10.020;2023-03-01T04:09:27;1.00;1.00
15003;DHT22;7597;53.590;10.020;2023-03-01T04:11:54;1.00;1.00
15003;DHT22;7597;53.590;10.020;2023-03-01T04:14:20;1.10;1.00
15003;DHT22;7597;53.590;10.020;2023-03-01T04:16:47;1.10;1.00
15003;DHT22;7597;53.590;10.020;2023-03-01T04:19:14;1.20;1.00
15003;DHT22;7597;53.590;10.020;2023-03-01T04:21:40;1.20;1.00
15003;DHT22;7597;53.590;10.020;2023-03-01T04:24:07;1.20;1.00
15003;DHT22;7597;53.590;10.020;2023-03-01T04:26:34;1.30;1.00
15003;DHT22;7597;53.590;10.020;2023-03-01T04:29:01;1.30;1.00
15003;DHT22;7597;53.590;10.020;2023-03-01T04:31:27;1.30;1.00
15003;DHT22;7597;53.590;10.020;2023-03-01T04:33:54;1.40;1.00
15003;DHT22;7597;53.590;10.020;2023-03-01T04:36:21;1.40;1.00
15003;DHT22;7597;53.590;10.020;2023-03-01T04:38:47;1.40;1.00
15003;DHT22;7597;53.590;10.020;2023-03-01T04:41:15;1.40;1.00
15003;DHT22;7597;53.590;10.020;2023-03-01T04:43:40;1.50;1.00
15003;DHT22;7597;53.590;10.020;2023-03-01T04:46:13;1.50;1.00
15003;DHT22;7597;53.590;10.020;2023-03-01T04:48:36;1.50;1.00
15003;DHT22;7597;53.590;10.020;2023-03-01T04:51:02;1.60;1.00
15003;DHT22;7597;53.590;10.020;2023-03-01T04:53:28;1.60;1.00
15003;DHT22;7597;53.590;10.020;2023-03-01T04:55:55;1.60;1.00
15003;DHT22;7597;53.590;10.020;2023-03-01T04:58:23;1.60;1.00
15003;DHT22;7597;53.590;10.020;2023-03-01T05:00:49;1.60;1.00
15003;DHT22;7597;53.590;10.020;2023-03-01T05:03:16;1.60;1.00
15003;DHT22;7597;53.590;10.020;2023-03-01T05:05:43;2.10;1.00
15003;DHT22;7597;53.590;10.020;2023-03-01T05:08:09;1.60;1.00
15003;DHT22;7597;53.590;10.020;2023-03-01T05:10:36;1.60;1.00
15003;DHT22;7597;53.590;10.020;2023-03-01T05:13:03;1.50;1.00
15003;DHT22;7597;53.590;10.020;2023-03-01T05:15:30;1.50;1.00
15003;DHT22;7597;53.590;10.020;2023-03-01T05:17:57;1.50;1.00
15003;DHT22;7597;53.590;10.020;2023-03-01T05:20:25;1.50;1.00
15003;DHT22;7597;53.590;10.020;2023-03-01T05:22:51;1.50;1.00
15003;DHT22;7597;53.590;10.020;2023-03-01T05:25:17;1.50;1.00
15003;DHT22;7597;53.590;10.020;2023-03-01T05:27:44;1.60;1.00
15003;DHT22;7597;53.590;10.020;2023-03-01T05:30:11;1.80;1.00
15003;DHT22;7597;53.590;10.020;2023-03-01T05:32:42;1.60;1.00
15003;DHT22;7597;53.590;10.020;2023-03-01T05:35:07;1.60;1.00
15003;DHT22;7597;53.590;10.020;2023-03-01T05:37:34;1.60;1.00
15003;DHT22;7597;53.590;10.020;2023-03-01T05:40:01;1.60;1.00
15003;DHT22;7597;53.590;10.020;2023-03-01T05:42:27;1.60;1.00
15003;DHT22;7597;53.590;10.020;2023-03-01T05:44:54;1.60;1.00
15003;DHT22;7597;53.590;10.020;2023-03-01T05:47:20;1.70;1.00
15003;DHT22;7597;53.590;10.020;2023-03-01T05:49:47;1.70;1.00
15003;DHT22;7597;53.590;10.020;2023-03-01T05:52:14;1.70;1.00
15003;DHT22;7597;53.590;10.020;2023-03-01T05:54:42;1.70;1.00
15003;DHT22;7597;53.590;10.020;2023-03-01T05:57:09;1.70;1.00
15003;DHT22;7597;53.590;10.020;2023-03-01T05:59:35;1.70;1.00
15003;DHT22;7597;53.590;10.020;2023-03-01T06:02:02;1.80;1.00
15003;DHT22;7597;53.590;10.020;2023-03-01T06:04:28;1.70;1.00
15003;DHT22;7597;53.590;10.020;2023-03-01T06:06:55;1.70;1.00
15003;DHT22;7597;53.590;10.020;2023-03-01T06:09:22;1.60;1.00
15003;DHT22;7597;53.590;10.020;2023-03-01T06:11:48;1.60;1.00
15003;DHT22;7597;53.590;10.020;2023-03-01T06:14:15;1.50;1.00
15003;DHT22;7597;53.590;10.020;2023-03-01T06:16:42;1.50;1.00
15003;DHT22;7597;53.590;10.020;2023-03-01T06:19:08;1.50;1.00
15003;DHT22;7597;53.590;10.020;2023-03-01T06:21:35;1.50;1.00
15003;DHT22;7597;53.590;10.020;2023-03-01T06:24:02;1.50;1.00
15003;DHT22;7597;53.590;10.020;2023-03-01T06:26:28;1.50;1.00
15003;DHT22;7597;53.590;10.020;2023-03-01T06:28:55;2.00;1.00
15003;DHT22;7597;53.590;10.020;2023-03-01T06:31:21;1.60;1.00
15003;DHT22;7597;53.590;10.020;2023-03-01T06:33:48;1.70;1.00
15003;DHT22;7597;53.590;10.020;2023-03-01T06:36:15;1.90;1.00
15003;DHT22;7597;53.590;10.020;2023-03-01T06:38:41;1.80;1.00
15003;DHT22;7597;53.590;10.020;2023-03-01T06:41:08;1.80;1.00
15003;DHT22;7597;53.590;10.020;2023-03-01T06:43:35;1.80;1.00
15003;DHT22;7597;53.590;10.020;2023-03-01T06:46:05;1.90;1.00
15003;DHT22;7597;53.590;10.020;2023-03-01T06:48:31;1.90;1.00
15003;DHT22;7597;53.590;10.020;2023-03-01T06:50:59;2.00;1.00
15003;DHT22;7597;53.590;10.020;2023-03-01T06:53:25;2.00;1.00
15003;DHT22;7597;53.590;10.020;2023-03-01T06:55:54;2.20;1.00
15003;DHT22;7597;53.590;10.020;2023-03-01T06:58:20;2.30;1.00
15003;DHT22;7597;53.590;10.020;2023-03-01T07:00:47;2.30;1.00
15003;DHT22;7597;53.590;10.020;2023-03-01T07:03:14;2.30;1.00
15003;DHT22;7597;53.590;10.020;2023-03-01T07:05:40;2.40;1.00
15003;DHT22;7597;53.590;10.020;2023-03-01T07:08:07;2.50;1.00
15003;DHT22;7597;53.590;10.020;2023-03-01T07:10:34;2.60;1.00
15003;DHT22;7597;53.590;10.020;2023-03-01T07:13:01;2.60;1.00
15003;DHT22;7597;53.590;10.020;2023-03-01T07:15:28;2.80;1.00
15003;DHT22;7597;53.590;10.020;2023-03-01T07:17:55;2.80;1.00
15003;DHT22;7597;53.590;10.020;2023-03-01T07:20:21;2.90;1.00
15003;DHT22;7597;53.590;10.020;2023-03-01T07:22:48;3.00;1.00
15003;DHT22;7597;53.590;10.020;2023-03-01T07:25:15;3.00;1.00
15003;DHT22;7597;53.590;10.020;2023-03-01T07:27:41;3.20;1.00
15003;DHT22;7597;53.590;10.020;2023-03-01T07:30:09;3.30;1.00
15003;DHT22;7597;53.590;10.020;2023-03-01T07:32:36;3.40;1.00
15003;DHT22;7597;53.590;10.020;2023-03-01T07:35:03;3.50;1.00
15003;DHT22;7597;53.590;10.020;2023-03-01T07:37:30;3.60;1.00
15003;DHT22;7597;53.590;10.020;2023-03-01T07:40:00;3.70;1.00
15003;DHT22;7597;53.590;10.020;2023-03-01T07:45:24;4.00;1.00
15003;DHT22;7597;53.590;10.020;2023-03-01T07:47:53;4.20;1.00
15003;DHT22;7597;53.590;10.020;2023-03-01T07:50:19;4.30;1.00
15003;DHT22;7597;53.590;10.020;2023-03-01T07:52:46;4.40;1.00
15003;DHT22;7597;53.590;10.020;2023-03-01T07:55:13;4.50;1.00
15003;DHT22;7597;53.590;10.020;2023-03-01T07:57:39;4.50;1.00
15003;DHT22;7597;53.590;10.020;2023-03-01T08:00:08;4.90;1.00
15003;DHT22;7597;53.590;10.020;2023-03-01T08:02:34;5.40;1.00
15003;DHT22;7597;53.590;10.020;2023-03-01T08:05:01;5.80;1.00
15003;DHT22;7597;53.590;10.020;2023-03-01T08:07:28;6.20;1.00
15003;DHT22;7597;53.590;10.020;2023-03-01T08:09:54;6.50;1.00
15003;DHT22;7597;53.590;10.020;2023-03-01T08:12:21;7.20;1.00
15003;DHT22;7597;53.590;10.020;2023-03-01T08:14:48;7.50;1.00
15003;DHT22;7597;53.590;10.020;2023-03-01T08:17:15;7.80;1.00
15003;DHT22;7597;53.590;10.020;2023-03-01T08:19:45;7.80;1.00
15003;DHT22;7597;53.590;10.020;2023-03-01T08:22:12;7.50;1.00
15003;DHT22;7597;53.590;10.020;2023-03-01T08:24:38;7.20;1.00
15003;DHT22;7597;53.590;10.020;2023-03-01T08:27:05;7.00;1.00
15003;DHT22;7597;53.590;10.020;2023-03-01T08:29:32;6.80;1.00
15003;DHT22;7597;53.590;10.020;2023-03-01T08:31:59;6.70;1.00
15003;DHT22;7597;53.590;10.020;2023-03-01T08:34:25;6.80;1.00
15003;DHT22;7597;53.590;10.020;2023-03-01T08:36:52;6.90;1.00
15003;DHT22;7597;53.590;10.020;2023-03-01T08:39:19;7.20;1.00
15003;DHT22;7597;53.590;10.020;2023-03-01T08:41:47;7.50;1.00
15003;DHT22;7597;53.590;10.020;2023-03-01T08:44:14;8.00;1.00
15003;DHT22;7597;53.590;10.020;2023-03-01T08:46:40;8.30;1.00
15003;DHT22;7597;53.590;10.020;2023-03-01T08:49:08;8.40;1.00
15003;DHT22;7597;53.590;10.020;2023-03-01T08:51:33;8.40;1.00
15003;DHT22;7597;53.590;10.020;2023-03-01T08:54:00;8.30;1.00
15003;DHT22;7597;53.590;10.020;2023-03-01T08:56:26;8.30;1.00
15003;DHT22;7597;53.590;10.020;2023-03-01T08:58:53;8.30;1.00
15003;DHT22;7597;53.590;10.020;2023-03-01T09:01:21;8.20;1.00
15003;DHT22;7597;53.590;10.020;2023-03-01T09:03:48;8.20;1.00
15003;DHT22;7597;53.590;10.020;2023-03-01T09:06:14;8.30;1.00
15003;DHT22;7597;53.590;10.020;2023-03-01T09:08:42;8.20;1.00
15003;DHT22;7597;53.590;10.020;2023-03-01T09:11:09;8.10;1.00
15003;DHT22;7597;53.590;10.020;2023-03-01T09:13:35;7.90;1.00
15003;DHT22;7597;53.590;10.020;2023-03-01T09:16:02;7.90;1.00
15003;DHT22;7597;53.590;10.020;2023-03-01T09:18:29;8.10;1.00
15003;DHT22;7597;53.590;10.020;2023-03-01T09:21:02;8.10;1.00
15003;DHT22;7597;53.590;10.020;2023-03-01T09:23:28;8.30;1.00
15003;DHT22;7597;53.590;10.020;2023-03-01T09:25:55;8.50;1.00
15003;DHT22;7597;53.590;10.020;2023-03-01T09:28:21;8.30;1.00
15003;DHT22;7597;53.590;10.020;2023-03-01T09:30:48;8.30;1.00
15003;DHT22;7597;53.590;10.020;2023-03-01T09:33:15;8.20;1.00
15003;DHT22;7597;53.590;10.020;2023-03-01T09:35:43;8.20;1.00
15003;DHT22;7597;53.590;10.020;2023-03-01T09:38:09;8.30;1.00
15003;DHT22;7597;53.590;10.020;2023-03-01T09:40:36;8.20;1.00
15003;DHT22;7597;53.590;10.020;2023-03-01T09:43:07;8.30;1.00
15003;DHT22;7597;53.590;10.020;2023-03-01T09:45:35;8.50;1.00
15003;DHT22;7597;53.590;10.020;2023-03-01T09:48:01;8.60;1.00
15003;DHT22;7597;53.590;10.020;2023-03-01T09:50:32;8.90;1.00
15003;DHT22;7597;53.590;10.020;2023-03-01T09:53:03;9.10;1.00
15003;DHT22;7597;53.590;10.020;2023-03-01T09:55:34;9.30;1.00
15003;DHT22;7597;53.590;10.020;2023-03-01T09:58:00;9.60;1.00
15003;DHT22;7597;53.590;10.020;2023-03-01T10:00:42;10.50;1.00
15003;DHT22;7597;53.590;10.020;2023-03-01T10:03:17;11.00;1.00
15003;DHT22;7597;53.590;10.020;2023-03-01T10:05:47;11.90;1.00
15003;DHT22;7597;53.590;10.020;2023-03-01T10:10:46;13.70;1.00
15003;DHT22;7597;53.590;10.020;2023-03-01T10:13:17;14.60;1.00
15003;DHT22;7597;53.590;10.020;2023-03-01T10:15:48;15.60;1.00
15003;DHT22;7597;53.590;10.020;2023-03-01T10:18:17;15.60;1.00
15003;DHT22;7597;53.590;10.020;2023-03-01T10:21:02;15.90;1.00
15003;DHT22;7597;53.590;10.020;2023-03-01T10:23:30;16.30;1.00
15003;DHT22;7597;53.590;10.020;2023-03-01T10:26:20;16.40;1.00
15003;DHT22;7597;53.590;10.020;2023-03-01T10:31:39;17.30;1.00
15003;DHT22;7597;53.590;10.020;2023-03-01T10:34:10;17.10;1.00
15003;DHT22;7597;53.590;10.020;2023-03-01T10:36:34;17.40;1.00
15003;DHT22;7597;53.590;10.020;2023-03-01T10:39:01;17.00;1.00
15003;DHT22;7597;53.590;10.020;2023-03-01T10:41:28;16.60;1.00
15003;DHT22;7597;53.590;10.020;2023-03-01T10:43:57;16.70;1.00
15003;DHT22;7597;53.590;10.020;2023-03-01T10:46:26;16.10;1.00
15003;DHT22;7597;53.590;10.020;2023-03-01T10:49:05;16.20;1.00
15003;DHT22;7597;53.590;10.020;2023-03-01T10:51:33;16.50;1.00
15003;DHT22;7597;53.590;10.020;2023-03-01T10:54:00;16.70;1.00
15003;DHT22;7597;53.590;10.020;2023-03-01T10:56:28;16.50;1.00
15003;DHT22;7597;53.590;10.020;2023-03-01T10:59:00;16.00;1.00
15003;DHT22;7597;53.590;10.020;2023-03-01T11:01:30;15.20;1.00
15003;DHT22;7597;53.590;10.020;2023-03-01T11:04:12;15.10;1.00
15003;DHT22;7597;53.590;10.020;2023-03-01T11:06:40;15.30;1.00
15003;DHT22;7597;53.590;10.020;2023-03-01T11:09:20;15.70;1.00
15003;DHT22;7597;53.590;10.020;2023-03-01T11:11:54;16.00;1.00
15003;DHT22;7597;53.590;10.020;2023-03-01T11:14:22;16.50;1.00
15003;DHT22;7597;53.590;10.020;2023-03-01T11:16:49;17.40;1.00
15003;DHT22;7597;53.590;10.020;2023-03-01T11:19:17;17.70;1.00
15003;DHT22;7597;53.590;10.020;2023-03-01T11:21:53;17.50;1.00
15003;DHT22;7597;53.590;10.020;2023-03-01T11:24:23;17.80;1.00
15003;DHT22;7597;53.590;10.020;2023-03-01T11:26:51;18.60;1.00
15003;DHT22;7597;53.590;10.020;2023-03-01T11:29:21;18.60;1.00
15003;DHT22;7597;53.590;10.020;2023-03-01T11:31:44;19.00;1.00
15003;DHT22;7597;53.590;10.020;2023-03-01T11:34:17;19.30;1.00
15003;DHT22;7597;53.590;10.020;2023-03-01T11:36:46;19.80;1.00
15003;DHT22;7597;53.590;10.020;2023-03-01T11:39:18;20.10;1.00
15003;DHT22;7597;53.590;10.020;2023-03-01T11:41:43;19.80;1.00
15003;DHT22;7597;53.590;10.020;2023-03-01T11:44:14;20.20;1.00
15003;DHT22;7597;53.590;10.020;2023-03-01T11:47:02;20.60;1.00
15003;DHT22;7597;53.590;10.020;2023-03-01T11:53:01;20.80;1.00
15003;DHT22;7597;53.590;10.020;2023-03-01T11:55:26;20.90;1.00
15003;DHT22;7597;53.590;10.020;2023-03-01T11:58:36;21.50;1.00
15003;DHT22;7597;53.590;10.020;2023-03-01T12:00:52;21.50;1.00
15003;DHT22;7597;53.590;10.020;2023-03-01T12:03:52;21.30;1.00
15003;DHT22;7597;53.590;10.020;2023-03-01T12:06:19;21.70;1.00
15003;DHT22;7597;53.590;10.020;2023-03-01T12:08:50;21.70;1.00
15003;DHT22;7597;53.590;10.020;2023-03-01T12:12:28;21.70;1.00
15003;DHT22;7597;53.590;10.020;2023-03-01T12:17:03;21.40;1.00
15003;DHT22;7597;53.590;10.020;2023-03-01T12:19:52;21.10;1.00
15003;DHT22;7597;53.590;10.020;2023-03-01T12:25:08;19.80;1.00
15003;DHT22;7597;53.590;10.020;2023-03-01T12:27:53;19.70;1.00
15003;DHT22;7597;53.590;10.020;2023-03-01T12:33:18;19.00;1.00
15003;DHT22;7597;53.590;10.020;2023-03-01T12:35:49;19.00;1.00
15003;DHT22;7597;53.590;10.020;2023-03-01T12:38:18;18.50;1.00
15003;DHT22;7597;53.590;10.020;2023-03-01T12:46:06;17.50;1.00
15003;DHT22;7597;53.590;10.020;2023-03-01T12:48:40;17.40;1.00
15003;DHT22;7597;53.590;10.020;2023-03-01T12:51:10;17.10;1.00
15003;DHT22;7597;53.590;10.020;2023-03-01T12:53:39;17.20;1.00
15003;DHT22;7597;53.590;10.020;2023-03-01T12:56:07;17.10;1.00
15003;DHT22;7597;53.590;10.020;2023-03-01T12:58:42;16.80;1.00
15003;DHT22;7597;53.590;10.020;2023-03-01T13:01:21;16.60;1.00
15003;DHT22;7597;53.590;10.020;2023-03-01T13:03:55;16.60;1.00
15003;DHT22;7597;53.590;10.020;2023-03-01T13:06:20;16.50;1.00
15003;DHT22;7597;53.590;10.020;2023-03-01T13:09:06;16.20;1.00
15003;DHT22;7597;53.590;10.020;2023-03-01T13:11:30;15.90;1.00
15003;DHT22;7597;53.590;10.020;2023-03-01T13:14:35;15.70;1.00
15003;DHT22;7597;53.590;10.020;2023-03-01T13:16:44;15.50;1.00
15003;DHT22;7597;53.590;10.020;2023-03-01T13:19:15;15.20;1.00
15003;DHT22;7597;53.590;10.020;2023-03-01T13:21:41;14.70;1.00
15003;DHT22;7597;53.590;10.020;2023-03-01T13:27:10;14.70;1.00
15003;DHT22;7597;53.590;10.020;2023-03-01T13:29:45;14.60;1.00
15003;DHT22;7597;53.590;10.020;2023-03-01T13:34:54;14.60;1.00
15003;DHT22;7597;53.590;10.020;2023-03-01T13:37:21;14.80;1.00
15003;DHT22;7597;53.590;10.020;2023-03-01T13:39:46;14.70;1.00
15003;DHT22;7597;53.590;10.020;2023-03-01T13:42:34;14.70;1.00
15003;DHT22;7597;53.590;10.020;2023-03-01T13:45:00;14.50;1.00
15003;DHT22;7597;53.590;10.020;2023-03-01T13:47:27;14.40;1.00
15003;DHT22;7597;53.590;10.020;2023-03-01T13:49:57;14.30;1.00
15003;DHT22;7597;53.590;10.020;2023-03-01T13:52:38;14.30;1.00
15003;DHT22;7597;53.590;10.020;2023-03-01T13:57:38;14.70;1.00
15003;DHT22;7597;53.590;10.020;2023-03-01T14:00:24;14.50;1.00
15003;DHT22;7597;53.590;10.020;2023-03-01T14:02:33;14.40;1.00
15003;DHT22;7597;53.590;10.020;2023-03-01T14:05:00;14.30;1.00
15003;DHT22;7597;53.590;10.020;2023-03-01T14:07:28;14.20;1.00
15003;DHT22;7597;53.590;10.020;2023-03-01T14:09:56;14.20;1.00
15003;DHT22;7597;53.590;10.020;2023-03-01T14:12:44;14.20;1.00
15003;DHT22;7597;53.590;10.020;2023-03-01T14:18:08;14.10;1.00
15003;DHT22;7597;53.590;10.020;2023-03-01T14:20:37;14.10;1.00
15003;DHT22;7597;53.590;10.020;2023-03-01T14:23:01;13.70;1.00
15003;DHT22;7597;53.590;10.020;2023-03-01T14:25:29;13.30;1.00
15003;DHT22;7597;53.590;10.020;2023-03-01T14:27:59;13.40;1.00
15003;DHT22;7597;53.590;10.020;2023-03-01T14:30:27;13.30;1.00
15003;DHT22;7597;53.590;10.020;2023-03-01T14:32:54;13.30;1.00
15003;DHT22;7597;53.590;10.020;2023-03-01T14:35:21;13.10;1.00
15003;DHT22;7597;53.590;10.020;2023-03-01T14:37:46;13.00;1.00
15003;DHT22;7597;53.590;10.020;2023-03-01T14:40:30;13.00;1.00
15003;DHT22;7597;53.590;10.020;2023-03-01T14:42:56;13.10;1.00
15003;DHT22;7597;53.590;10.020;2023-03-01T14:45:22;13.30;1.00
15003;DHT22;7597;53.590;10.020;2023-03-01T14:47:49;13.30;1.00
15003;DHT22;7597;53.590;10.020;2023-03-01T14:50:21;13.10;1.00
15003;DHT22;7597;53.590;10.020;2023-03-01T14:52:46;13.00;1.00
15003;DHT22;7597;53.590;10.020;2023-03-01T14:55:16;13.00;1.00
15003;DHT22;7597;53.590;10.020;2023-03-01T14:57:43;12.80;1.00
15003;DHT22;7597;53.590;10.020;2023-03-01T15:00:15;12.80;1.00
15003;DHT22;7597;53.590;10.020;2023-03-01T15:02:38;12.80;1.00
15003;DHT22;7597;53.590;10.020;2023-03-01T15:05:06;12.60;1.00
15003;DHT22;7597;53.590;10.020;2023-03-01T15:07:34;12.50;1.00
15003;DHT22;7597;53.590;10.020;2023-03-01T15:10:00;12.50;1.00
15003;DHT22;7597;53.590;10.020;2023-03-01T15:12:36;12.50;1.00
15003;DHT22;7597;53.590;10.020;2023-03-01T15:15:18;12.40;1.00
15003;DHT22;7597;53.590;10.020;2023-03-01T15:17:32;12.70;1.00
15003;DHT22;7597;53.590;10.020;2023-03-01T15:19:58;12.80;1.00
15003;DHT22;7597;53.590;10.020;2023-03-01T15:22:25;12.70;1.00
15003;DHT22;7597;53.590;10.020;2023-03-01T15:24:55;12.60;1.00
15003;DHT22;7597;53.590;10.020;2023-03-01T15:27:23;12.00;1.00
15003;DHT22;7597;53.590;10.020;2023-03-01T15:29:49;11.70;1.00
15003;DHT22;7597;53.590;10.020;2023-03-01T15:32:24;11.60;1.00
15003;DHT22;7597;53.590;10.020;2023-03-01T15:34:50;11.70;1.00
15003;DHT22;7597;53.590;10.020;2023-03-01T15:39:55;11.50;1.00
15003;DHT22;7597;53.590;10.020;2023-03-01T15:42:41;11.50;1.00
15003;DHT22;7597;53.590;10.020;2023-03-01T15:45:10;11.50;1.00
15003;DHT22;7597;53.590;10.020;2023-03-01T15:47:36;11.20;1.00
15003;DHT22;7597;53.590;10.020;2023-03-01T15:50:03;10.80;1.00
15003;DHT22;7597;53.590;10.020;2023-03-01T15:52:40;10.60;1.00
15003;DHT22;7597;53.590;10.020;2023-03-01T15:57:40;10.20;1.00
15003;DHT22;7597;53.590;10.020;2023-03-01T16:00:09;10.00;1.00
15003;DHT22;7597;53.590;10.020;2023-03-01T16:02:40;9.60;1.00
15003;DHT22;7597;53.590;10.020;2023-03-01T16:05:24;9.50;1.00
15003;DHT22;7597;53.590;10.020;2023-03-01T16:07:51;9.40;1.00
15003;DHT22;7597;53.590;10.020;2023-03-01T16:10:17;9.20;1.00
15003;DHT22;7597;53.590;10.020;2023-03-01T16:12:44;9.00;1.00
15003;DHT22;7597;53.590;10.020;2023-03-01T16:15:16;8.80;1.00
15003;DHT22;7597;53.590;10.020;2023-03-01T16:17:40;8.60;1.00
15003;DHT22;7597;53.590;10.020;2023-03-01T16:20:08;8.40;1.00
15003;DHT22;7597;53.590;10.020;2023-03-01T16:22:35;8.30;1.00
15003;DHT22;7597;53.590;10.020;2023-03-01T16:25:02;8.20;1.00
15003;DHT22;7597;53.590;10.020;2023-03-01T16:27:28;8.00;1.00
15003;DHT22;7597;53.590;10.020;2023-03-01T16:29:55;7.90;1.00
15003;DHT22;7597;53.590;10.020;2023-03-01T16:32:22;7.80;1.00
15003;DHT22;7597;53.590;10.020;2023-03-01T16:34:49;7.70;1.00
15003;DHT22;7597;53.590;10.020;2023-03-01T16:37:15;7.50;1.00
15003;DHT22;7597;53.590;10.020;2023-03-01T16:39:42;7.40;1.00
15003;DHT22;7597;53.590;10.020;2023-03-01T16:42:09;7.30;1.00
15003;DHT22;7597;53.590;10.020;2023-03-01T16:44:35;7.20;1.00
15003;DHT22;7597;53.590;10.020;2023-03-01T16:47:02;7.00;1.00
15003;DHT22;7597;53.590;10.020;2023-03-01T16:49:29;7.00;1.00